sensor_id;sensor_type;location;lat;lon;timestamp;pressure;altitude;pressure_sealevel;temperature;humidity
58668;BME280;59852;43.086;25.634;2024-02-14T00:02:10;98487.19;;;6.21;nan
58668;BME280;59852;43.086;25.634;2024-02-14T00:04:37;98486.16;;;6.23;nan
58668;BME280;59852;43.086;25.634;2024-02-14T00:07:03;98487.50;;;6.15;nan
58668;BME280;59852;43.086;25.634;2024-02-14T00:09:29;98490.69;;;6.20;nan
58668;BME280;59852;43.086;25.634;2024-02-14T00:11:54;98487.16;;;6.51;nan
58668;BME280;59852;43.086;25.634;2024-02-14T00:14:19;98495.94;;;6.48;nan
58668;BME280;59852;43.086;25.634;2024-02-14T00:16:45;98492.06;;;6.55;nan
58668;BME280;59852;43.086;25.634;2024-02-14T00:19:10;98494.66;;;6.55;nan
58668;BME280;59852;43.086;25.634;2024-02-14T00:21:36;98495.09;;;6.48;nan
58668;BME280;59852;43.086;25.634;2024-02-14T00:24:01;98491.03;;;6.14;nan
58668;BME280;59852;43.086;25.634;2024-02-14T00:26:27;98496.03;;;6.47;nan
58668;BME280;59852;43.086;25.634;2024-02-14T00:28:52;98494.91;;;6.37;nan
58668;BME280;59852;43.086;25.634;2024-02-14T00:31:17;98500.53;;;6.29;nan
58668;BME280;59852;43.086;25.634;2024-02-14T00:33:43;98502.59;;;6.38;nan
58668;BME280;59852;43.086;25.634;2024-02-14T00:36:10;98500.16;;;6.51;nan
58668;BME280;59852;43.086;25.634;2024-02-14T00:38:35;98497.03;;;6.30;nan
58668;BME280;59852;43.086;25.634;2024-02-14T00:41:01;98506.97;;;6.38;nan
58668;BME280;59852;43.086;25.634;2024-02-14T00:43:26;98499.09;;;6.39;nan
58668;BME280;59852;43.086;25.634;2024-02-14T00:45:51;98509.50;;;6.39;nan
58668;BME280;59852;43.086;25.634;2024-02-14T00:48:17;98513.91;;;6.37;nan
58668;BME280;59852;43.086;25.634;2024-02-14T00:50:42;98509.66;;;6.36;nan
58668;BME280;59852;43.086;25.634;2024-02-14T00:53:07;98513.56;;;6.13;nan
58668;BME280;59852;43.086;25.634;2024-02-14T00:55:33;98515.34;;;6.43;nan
58668;BME280;59852;43.086;25.634;2024-02-14T00:57:58;98517.00;;;6.44;nan
58668;BME280;59852;43.086;25.634;2024-02-14T01:00:24;98520.66;;;6.55;nan
58668;BME280;59852;43.086;25.634;2024-02-14T01:02:49;98523.03;;;6.14;nan
58668;BME280;59852;43.086;25.634;2024-02-14T01:05:14;98528.56;;;6.38;nan
58668;BME280;59852;43.086;25.634;2024-02-14T01:07:40;98517.31;;;6.53;nan
58668;BME280;59852;43.086;25.634;2024-02-14T01:10:05;98524.06;;;6.42;nan
58668;BME280;59852;43.086;25.634;2024-02-14T01:12:30;98521.16;;;6.32;nan
58668;BME280;59852;43.086;25.634;2024-02-14T01:14:56;98523.06;;;6.28;nan
58668;BME280;59852;43.086;25.634;2024-02-14T01:17:22;98535.59;;;6.22;nan
58668;BME280;59852;43.086;25.634;2024-02-14T01:19:47;98530.28;;;6.39;nan
58668;BME280;59852;43.086;25.634;2024-02-14T01:22:13;98539.72;;;6.10;nan
58668;BME280;59852;43.086;25.634;2024-02-14T01:24:42;98535.50;;;6.23;nan
58668;BME280;59852;43.086;25.634;2024-02-14T01:27:08;98541.31;;;5.97;nan
58668;BME280;59852;43.086;25.634;2024-02-14T01:29:33;98544.56;;;6.16;nan
58668;BME280;59852;43.086;25.634;2024-02-14T01:31:59;98539.25;;;6.33;nan
58668;BME280;59852;43.086;25.634;2024-02-14T01:34:24;98539.75;;;6.24;nan
58668;BME280;59852;43.086;25.634;2024-02-14T01:36:49;98546.91;;;6.21;nan
58668;BME280;59852;43.086;25.634;2024-02-14T01:39:15;98547.84;;;6.04;nan
58668;BME280;59852;43.086;25.634;2024-02-14T01:41:47;98542.13;;;6.13;nan
58668;BME280;59852;43.086;25.634;2024-02-14T01:44:14;98544.22;;;6.22;nan
58668;BME280;59852;43.086;25.634;2024-02-14T01:46:39;98549.97;;;6.27;nan
58668;BME280;59852;43.086;25.634;2024-02-14T01:49:04;98553.69;;;6.23;nan
58668;BME280;59852;43.086;25.634;2024-02-14T01:51:30;98545.06;;;6.07;nan
58668;BME280;59852;43.086;25.634;2024-02-14T01:53:56;98551.19;;;6.06;nan
58668;BME280;59852;43.086;25.634;2024-02-14T01:56:22;98552.44;;;5.99;nan
58668;BME280;59852;43.086;25.634;2024-02-14T01:58:47;98555.69;;;6.18;nan
58668;BME280;59852;43.086;25.634;2024-02-14T02:01:13;98560.28;;;6.29;nan
58668;BME280;59852;43.086;25.634;2024-02-14T02:03:39;98558.69;;;6.26;nan
58668;BME280;59852;43.086;25.634;2024-02-14T02:06:05;98558.28;;;6.18;nan
58668;BME280;59852;43.086;25.634;2024-02-14T02:08:30;98563.22;;;6.23;nan
58668;BME280;59852;43.086;25.634;2024-02-14T02:10:57;98565.66;;;6.26;nan
58668;BME280;59852;43.086;25.634;2024-02-14T02:13:23;98566.16;;;6.17;nan
58668;BME280;59852;43.086;25.634;2024-02-14T02:15:48;98563.47;;;6.18;nan
58668;BME280;59852;43.086;25.634;2024-02-14T02:18:13;98568.53;;;6.21;nan
58668;BME280;59852;43.086;25.634;2024-02-14T02:20:40;98568.03;;;5.99;nan
58668;BME280;59852;43.086;25.634;2024-02-14T02:23:08;98572.69;;;6.08;nan
58668;BME280;59852;43.086;25.634;2024-02-14T02:25:34;98571.03;;;6.23;nan
58668;BME280;59852;43.086;25.634;2024-02-14T02:27:59;98574.78;;;6.17;nan
58668;BME280;59852;43.086;25.634;2024-02-14T02:30:25;98586.50;;;6.40;nan
58668;BME280;59852;43.086;25.634;2024-02-14T02:32:51;98579.50;;;6.11;nan
58668;BME280;59852;43.086;25.634;2024-02-14T02:35:16;98587.53;;;6.22;nan
58668;BME280;59852;43.086;25.634;2024-02-14T02:37:42;98583.59;;;6.15;nan
58668;BME280;59852;43.086;25.634;2024-02-14T02:40:10;98590.53;;;5.83;nan
58668;BME280;59852;43.086;25.634;2024-02-14T02:42:35;98589.22;;;6.07;nan
58668;BME280;59852;43.086;25.634;2024-02-14T02:45:01;98601.03;;;5.97;nan
58668;BME280;59852;43.086;25.634;2024-02-14T02:47:34;98598.72;;;5.75;nan
58668;BME280;59852;43.086;25.634;2024-02-14T02:49:59;98600.09;;;5.82;nan
58668;BME280;59852;43.086;25.634;2024-02-14T02:52:26;98605.63;;;6.08;nan
58668;BME280;59852;43.086;25.634;2024-02-14T02:54:53;98601.84;;;5.97;nan
58668;BME280;59852;43.086;25.634;2024-02-14T02:57:18;98610.19;;;5.87;nan
58668;BME280;59852;43.086;25.634;2024-02-14T02:59:44;98613.06;;;5.98;nan
58668;BME280;59852;43.086;25.634;2024-02-14T03:02:11;98615.34;;;6.04;nan
58668;BME280;59852;43.086;25.634;2024-02-14T03:04:37;98616.59;;;5.97;nan
58668;BME280;59852;43.086;25.634;2024-02-14T03:07:03;98618.63;;;5.92;nan
58668;BME280;59852;43.086;25.634;2024-02-14T03:09:32;98625.13;;;5.99;nan
58668;BME280;59852;43.086;25.634;2024-02-14T03:11:57;98627.16;;;6.10;nan
58668;BME280;59852;43.086;25.634;2024-02-14T03:14:23;98623.16;;;6.20;nan
58668;BME280;59852;43.086;25.634;2024-02-14T03:16:48;98628.66;;;5.98;nan
58668;BME280;59852;43.086;25.634;2024-02-14T03:19:13;98622.38;;;6.18;nan
58668;BME280;59852;43.086;25.634;2024-02-14T03:21:39;98623.09;;;5.88;nan
58668;BME280;59852;43.086;25.634;2024-02-14T03:24:04;98628.56;;;5.99;nan
58668;BME280;59852;43.086;25.634;2024-02-14T03:26:30;98630.47;;;5.80;nan
58668;BME280;59852;43.086;25.634;2024-02-14T03:28:59;98636.91;;;5.73;nan
58668;BME280;59852;43.086;25.634;2024-02-14T03:31:24;98640.16;;;5.76;nan
58668;BME280;59852;43.086;25.634;2024-02-14T03:33:51;98640.78;;;5.97;nan
58668;BME280;59852;43.086;25.634;2024-02-14T03:36:16;98652.09;;;5.96;nan
58668;BME280;59852;43.086;25.634;2024-02-14T03:38:41;98649.28;;;6.01;nan
58668;BME280;59852;43.086;25.634;2024-02-14T03:41:07;98648.28;;;5.86;nan
58668;BME280;59852;43.086;25.634;2024-02-14T03:43:32;98663.59;;;5.92;nan
58668;BME280;59852;43.086;25.634;2024-02-14T03:45:58;98664.75;;;5.69;nan
58668;BME280;59852;43.086;25.634;2024-02-14T03:48:23;98669.16;;;5.85;nan
58668;BME280;59852;43.086;25.634;2024-02-14T03:50:49;98673.81;;;5.78;nan
58668;BME280;59852;43.086;25.634;2024-02-14T03:53:14;98670.38;;;5.95;nan
58668;BME280;59852;43.086;25.634;2024-02-14T03:55:40;98673.59;;;5.83;nan
58668;BME280;59852;43.086;25.634;2024-02-14T03:58:05;98680.19;;;5.88;nan
58668;BME280;59852;43.086;25.634;2024-02-14T04:00:33;98680.69;;;6.12;nan
58668;BME280;59852;43.086;25.634;2024-02-14T04:03:00;98680.34;;;6.02;nan
58668;BME280;59852;43.086;25.634;2024-02-14T04:05:27;98683.72;;;5.87;nan
58668;BME280;59852;43.086;25.634;2024-02-14T04:07:53;98687.78;;;5.93;nan
58668;BME280;59852;43.086;25.634;2024-02-14T04:10:19;98693.25;;;6.04;nan
58668;BME280;59852;43.086;25.634;2024-02-14T04:12:44;98688.97;;;6.03;nan
58668;BME280;59852;43.086;25.634;2024-02-14T04:15:10;98691.88;;;5.97;nan
58668;BME280;59852;43.086;25.634;2024-02-14T04:17:35;98700.84;;;6.07;nan
58668;BME280;59852;43.086;25.634;2024-02-14T04:20:00;98700.97;;;5.88;nan
58668;BME280;59852;43.086;25.634;2024-02-14T04:22:26;98699.94;;;5.92;nan
58668;BME280;59852;43.086;25.634;2024-02-14T04:24:51;98704.13;;;5.95;nan
58668;BME280;59852;43.086;25.634;2024-02-14T04:27:17;98703.38;;;6.09;nan
58668;BME280;59852;43.086;25.634;2024-02-14T04:29:45;98709.56;;;6.06;nan
58668;BME280;59852;43.086;25.634;2024-02-14T04:32:11;98704.91;;;6.13;nan
58668;BME280;59852;43.086;25.634;2024-02-14T04:34:37;98705.88;;;5.94;nan
58668;BME280;59852;43.086;25.634;2024-02-14T04:37:04;98709.81;;;6.01;nan
58668;BME280;59852;43.086;25.634;2024-02-14T04:39:35;98713.16;;;6.03;nan
58668;BME280;59852;43.086;25.634;2024-02-14T04:42:00;98716.56;;;6.21;nan
58668;BME280;59852;43.086;25.634;2024-02-14T04:44:26;98720.47;;;6.13;nan
58668;BME280;59852;43.086;25.634;2024-02-14T04:46:51;98725.72;;;5.95;nan
58668;BME280;59852;43.086;25.634;2024-02-14T04:49:17;98728.47;;;5.92;nan
58668;BME280;59852;43.086;25.634;2024-02-14T04:51:42;98725.91;;;6.08;nan
58668;BME280;59852;43.086;25.634;2024-02-14T04:54:07;98733.53;;;6.11;nan
58668;BME280;59852;43.086;25.634;2024-02-14T04:56:33;98738.56;;;6.14;nan
58668;BME280;59852;43.086;25.634;2024-02-14T04:58:59;98740.06;;;6.18;nan
58668;BME280;59852;43.086;25.634;2024-02-14T05:01:24;98754.06;;;6.00;nan
58668;BME280;59852;43.086;25.634;2024-02-14T05:03:50;98752.69;;;6.09;nan
58668;BME280;59852;43.086;25.634;2024-02-14T05:06:15;98749.25;;;6.08;nan
58668;BME280;59852;43.086;25.634;2024-02-14T05:08:41;98749.47;;;6.21;nan
58668;BME280;59852;43.086;25.634;2024-02-14T05:11:06;98765.69;;;6.09;nan
58668;BME280;59852;43.086;25.634;2024-02-14T05:13:32;98755.16;;;6.12;nan
58668;BME280;59852;43.086;25.634;2024-02-14T05:15:57;98773.06;;;6.16;nan
58668;BME280;59852;43.086;25.634;2024-02-14T05:18:22;98771.09;;;6.21;nan
58668;BME280;59852;43.086;25.634;2024-02-14T05:20:48;98770.31;;;6.19;nan
58668;BME280;59852;43.086;25.634;2024-02-14T05:23:14;98777.97;;;6.22;nan
58668;BME280;59852;43.086;25.634;2024-02-14T05:25:42;98777.06;;;6.06;nan
58668;BME280;59852;43.086;25.634;2024-02-14T05:28:08;98784.88;;;6.06;nan
58668;BME280;59852;43.086;25.634;2024-02-14T05:30:38;98790.50;;;6.14;nan
58668;BME280;59852;43.086;25.634;2024-02-14T05:33:03;98786.50;;;6.24;nan
58668;BME280;59852;43.086;25.634;2024-02-14T05:35:29;98799.66;;;6.21;nan
58668;BME280;59852;43.086;25.634;2024-02-14T05:37:54;98803.56;;;6.13;nan
58668;BME280;59852;43.086;25.634;2024-02-14T05:40:20;98806.75;;;6.18;nan
58668;BME280;59852;43.086;25.634;2024-02-14T05:42:46;98812.50;;;6.07;nan
58668;BME280;59852;43.086;25.634;2024-02-14T05:45:11;98815.19;;;6.06;nan
58668;BME280;59852;43.086;25.634;2024-02-14T05:47:38;98811.44;;;6.11;nan
58668;BME280;59852;43.086;25.634;2024-02-14T05:50:04;98817.56;;;6.10;nan
58668;BME280;59852;43.086;25.634;2024-02-14T05:52:30;98819.81;;;6.16;nan
58668;BME280;59852;43.086;25.634;2024-02-14T05:54:55;98828.56;;;5.98;nan
58668;BME280;59852;43.086;25.634;2024-02-14T05:57:20;98827.81;;;5.96;nan
58668;BME280;59852;43.086;25.634;2024-02-14T05:59:46;98836.31;;;6.15;nan
58668;BME280;59852;43.086;25.634;2024-02-14T06:02:11;98832.63;;;6.19;nan
58668;BME280;59852;43.086;25.634;2024-02-14T06:04:37;98843.09;;;6.18;nan
58668;BME280;59852;43.086;25.634;2024-02-14T06:07:02;98846.50;;;6.20;nan
58668;BME280;59852;43.086;25.634;2024-02-14T06:09:30;98852.16;;;6.11;nan
58668;BME280;59852;43.086;25.634;2024-02-14T06:11:55;98844.19;;;6.14;nan
58668;BME280;59852;43.086;25.634;2024-02-14T06:14:21;98852.00;;;6.14;nan
58668;BME280;59852;43.086;25.634;2024-02-14T06:16:46;98849.00;;;6.21;nan
58668;BME280;59852;43.086;25.634;2024-02-14T06:19:11;98858.78;;;6.16;nan
58668;BME280;59852;43.086;25.634;2024-02-14T06:21:37;98869.00;;;6.19;nan
58668;BME280;59852;43.086;25.634;2024-02-14T06:24:03;98865.59;;;6.01;nan
58668;BME280;59852;43.086;25.634;2024-02-14T06:26:29;98863.38;;;5.94;nan
58668;BME280;59852;43.086;25.634;2024-02-14T06:28:55;98862.16;;;6.01;nan
58668;BME280;59852;43.086;25.634;2024-02-14T06:31:21;98864.56;;;5.87;nan
58668;BME280;59852;43.086;25.634;2024-02-14T06:33:47;98872.31;;;6.06;nan
58668;BME280;59852;43.086;25.634;2024-02-14T06:36:12;98864.66;;;6.20;nan
58668;BME280;59852;43.086;25.634;2024-02-14T06:38:38;98876.66;;;6.05;nan
58668;BME280;59852;43.086;25.634;2024-02-14T06:41:03;98868.50;;;6.13;nan
58668;BME280;59852;43.086;25.634;2024-02-14T06:43:29;98870.53;;;6.23;nan
58668;BME280;59852;43.086;25.634;2024-02-14T06:45:55;98879.56;;;5.99;nan
58668;BME280;59852;43.086;25.634;2024-02-14T06:48:20;98877.88;;;5.81;nan
58668;BME280;59852;43.086;25.634;2024-02-14T06:50:48;98885.97;;;6.09;nan
58668;BME280;59852;43.086;25.634;2024-02-14T06:53:14;98891.25;;;6.08;nan
58668;BME280;59852;43.086;25.634;2024-02-14T06:55:39;98890.09;;;6.13;nan
58668;BME280;59852;43.086;25.634;2024-02-14T06:58:04;98901.69;;;6.23;nan
58668;BME280;59852;43.086;25.634;2024-02-14T07:00:30;98898.56;;;5.99;nan
58668;BME280;59852;43.086;25.634;2024-02-14T07:02:55;98904.31;;;6.06;nan
58668;BME280;59852;43.086;25.634;2024-02-14T07:05:20;98914.78;;;6.04;nan
58668;BME280;59852;43.086;25.634;2024-02-14T07:07:46;98910.78;;;6.15;nan
58668;BME280;59852;43.086;25.634;2024-02-14T07:10:11;98912.19;;;6.04;nan
58668;BME280;59852;43.086;25.634;2024-02-14T07:12:37;98918.75;;;6.12;nan
58668;BME280;59852;43.086;25.634;2024-02-14T07:15:03;98921.28;;;6.13;nan
58668;BME280;59852;43.086;25.634;2024-02-14T07:17:29;98925.06;;;6.23;nan
58668;BME280;59852;43.086;25.634;2024-02-14T07:19:54;98927.22;;;6.15;nan
58668;BME280;59852;43.086;25.634;2024-02-14T07:22:20;98934.34;;;6.12;nan
58668;BME280;59852;43.086;25.634;2024-02-14T07:24:45;98931.81;;;6.10;nan
58668;BME280;59852;43.086;25.634;2024-02-14T07:27:14;98933.63;;;6.08;nan
58668;BME280;59852;43.086;25.634;2024-02-14T07:29:39;98936.22;;;6.25;nan
58668;BME280;59852;43.086;25.634;2024-02-14T07:32:05;98948.44;;;6.06;nan
58668;BME280;59852;43.086;25.634;2024-02-14T07:34:31;98945.94;;;6.04;nan
58668;BME280;59852;43.086;25.634;2024-02-14T07:36:56;98945.69;;;6.09;nan
58668;BME280;59852;43.086;25.634;2024-02-14T07:39:22;98948.00;;;6.15;nan
58668;BME280;59852;43.086;25.634;2024-02-14T07:41:47;98959.97;;;6.18;nan
58668;BME280;59852;43.086;25.634;2024-02-14T07:44:12;98962.91;;;6.12;nan
58668;BME280;59852;43.086;25.634;2024-02-14T07:46:38;98967.47;;;6.07;nan
58668;BME280;59852;43.086;25.634;2024-02-14T07:49:03;98965.31;;;5.97;nan
58668;BME280;59852;43.086;25.634;2024-02-14T07:51:30;98967.06;;;5.97;nan
58668;BME280;59852;43.086;25.634;2024-02-14T07:54:01;98971.00;;;5.87;nan
58668;BME280;59852;43.086;25.634;2024-02-14T07:56:27;98965.19;;;6.00;nan
58668;BME280;59852;43.086;25.634;2024-02-14T07:58:52;98972.56;;;6.08;nan
58668;BME280;59852;43.086;25.634;2024-02-14T08:01:18;98973.66;;;6.04;nan
58668;BME280;59852;43.086;25.634;2024-02-14T08:03:44;98979.56;;;5.89;nan
58668;BME280;59852;43.086;25.634;2024-02-14T08:06:11;98983.72;;;5.93;nan
58668;BME280;59852;43.086;25.634;2024-02-14T08:08:36;98987.38;;;5.70;nan
58668;BME280;59852;43.086;25.634;2024-02-14T08:11:02;98989.94;;;5.71;nan
58668;BME280;59852;43.086;25.634;2024-02-14T08:13:27;98993.56;;;5.67;nan
58668;BME280;59852;43.086;25.634;2024-02-14T08:15:54;98999.47;;;5.88;nan
58668;BME280;59852;43.086;25.634;2024-02-14T08:18:19;98999.03;;;5.80;nan
58668;BME280;59852;43.086;25.634;2024-02-14T08:20:44;99004.16;;;5.82;nan
58668;BME280;59852;43.086;25.634;2024-02-14T08:23:10;98995.66;;;5.78;nan
58668;BME280;59852;43.086;25.634;2024-02-14T08:25:35;99008.78;;;5.75;nan
58668;BME280;59852;43.086;25.634;2024-02-14T08:28:00;99008.53;;;5.62;nan
58668;BME280;59852;43.086;25.634;2024-02-14T08:30:26;98999.16;;;5.77;nan
58668;BME280;59852;43.086;25.634;2024-02-14T08:32:52;99002.06;;;5.88;nan
58668;BME280;59852;43.086;25.634;2024-02-14T08:35:17;99013.78;;;5.61;nan
58668;BME280;59852;43.086;25.634;2024-02-14T08:37:43;99017.63;;;5.71;nan
58668;BME280;59852;43.086;25.634;2024-02-14T08:40:08;99013.47;;;5.67;nan
58668;BME280;59852;43.086;25.634;2024-02-14T08:42:34;99021.06;;;5.71;nan
58668;BME280;59852;43.086;25.634;2024-02-14T08:45:00;99016.31;;;5.80;nan
58668;BME280;59852;43.086;25.634;2024-02-14T08:47:26;99021.19;;;5.68;nan
58668;BME280;59852;43.086;25.634;2024-02-14T08:49:51;99023.91;;;5.84;nan
58668;BME280;59852;43.086;25.634;2024-02-14T08:52:17;99028.53;;;5.78;nan
58668;BME280;59852;43.086;25.634;2024-02-14T08:54:43;99029.19;;;5.83;nan
58668;BME280;59852;43.086;25.634;2024-02-14T08:57:08;99032.28;;;5.72;nan
58668;BME280;59852;43.086;25.634;2024-02-14T08:59:34;99035.38;;;5.80;nan
58668;BME280;59852;43.086;25.634;2024-02-14T09:01:59;99040.56;;;5.61;nan
58668;BME280;59852;43.086;25.634;2024-02-14T09:04:24;99037.56;;;5.70;nan
58668;BME280;59852;43.086;25.634;2024-02-14T09:06:50;99037.13;;;5.61;nan
58668;BME280;59852;43.086;25.634;2024-02-14T09:09:15;99042.66;;;5.72;nan
58668;BME280;59852;43.086;25.634;2024-02-14T09:11:41;99039.28;;;5.70;nan
58668;BME280;59852;43.086;25.634;2024-02-14T09:14:06;99047.47;;;5.80;nan
58668;BME280;59852;43.086;25.634;2024-02-14T09:16:35;99051.56;;;5.85;nan
58668;BME280;59852;43.086;25.634;2024-02-14T09:19:00;99044.97;;;5.97;nan
58668;BME280;59852;43.086;25.634;2024-02-14T09:21:30;99047.47;;;5.80;nan
58668;BME280;59852;43.086;25.634;2024-02-14T09:23:55;99058.34;;;5.88;nan
58668;BME280;59852;43.086;25.634;2024-02-14T09:26:21;99054.00;;;5.69;nan
58668;BME280;59852;43.086;25.634;2024-02-14T09:28:46;99054.31;;;5.63;nan
58668;BME280;59852;43.086;25.634;2024-02-14T09:31:12;99047.44;;;5.81;nan
58668;BME280;59852;43.086;25.634;2024-02-14T09:33:38;99051.31;;;5.90;nan
58668;BME280;59852;43.086;25.634;2024-02-14T09:36:04;99046.22;;;5.69;nan
58668;BME280;59852;43.086;25.634;2024-02-14T09:38:29;99051.13;;;5.75;nan
58668;BME280;59852;43.086;25.634;2024-02-14T09:40:55;99045.88;;;5.77;nan
58668;BME280;59852;43.086;25.634;2024-02-14T09:43:36;99050.78;;;5.83;nan
58668;BME280;59852;43.086;25.634;2024-02-14T09:46:03;99055.06;;;5.65;nan
58668;BME280;59852;43.086;25.634;2024-02-14T09:48:29;99051.28;;;5.72;nan
58668;BME280;59852;43.086;25.634;2024-02-14T09:50:55;99055.31;;;5.61;nan
58668;BME280;59852;43.086;25.634;2024-02-14T09:53:21;99046.31;;;5.49;nan
58668;BME280;59852;43.086;25.634;2024-02-14T09:55:48;99047.78;;;5.55;nan
58668;BME280;59852;43.086;25.634;2024-02-14T09:58:13;99044.34;;;5.92;nan
58668;BME280;59852;43.086;25.634;2024-02-14T10:00:39;99041.94;;;5.68;nan
58668;BME280;59852;43.086;25.634;2024-02-14T10:03:06;99044.19;;;5.76;nan
58668;BME280;59852;43.086;25.634;2024-02-14T10:05:31;99047.88;;;5.91;nan
58668;BME280;59852;43.086;25.634;2024-02-14T10:07:56;99042.25;;;5.62;nan
58668;BME280;59852;43.086;25.634;2024-02-14T10:10:22;99043.16;;;5.61;nan
58668;BME280;59852;43.086;25.634;2024-02-14T10:12:48;99042.78;;;5.69;nan
58668;BME280;59852;43.086;25.634;2024-02-14T10:15:13;99032.41;;;5.50;nan
58668;BME280;59852;43.086;25.634;2024-02-14T10:17:39;99031.38;;;5.73;nan
58668;BME280;59852;43.086;25.634;2024-02-14T10:20:06;99034.66;;;5.76;nan
58668;BME280;59852;43.086;25.634;2024-02-14T10:22:35;99039.41;;;5.86;nan
58668;BME280;59852;43.086;25.634;2024-02-14T10:25:02;99032.31;;;5.89;nan
58668;BME280;59852;43.086;25.634;2024-02-14T10:27:27;99037.09;;;5.80;nan
58668;BME280;59852;43.086;25.634;2024-02-14T10:29:55;99034.88;;;5.72;nan
58668;BME280;59852;43.086;25.634;2024-02-14T10:32:21;99029.78;;;5.88;nan
58668;BME280;59852;43.086;25.634;2024-02-14T10:34:47;99033.13;;;5.72;nan
58668;BME280;59852;43.086;25.634;2024-02-14T10:37:13;99023.84;;;6.04;nan
58668;BME280;59852;43.086;25.634;2024-02-14T10:39:39;99024.50;;;5.91;nan
58668;BME280;59852;43.086;25.634;2024-02-14T10:42:06;99026.25;;;5.90;nan
58668;BME280;59852;43.086;25.634;2024-02-14T10:44:31;99030.22;;;5.79;nan
58668;BME280;59852;43.086;25.634;2024-02-14T10:46:57;99018.50;;;5.89;nan
58668;BME280;59852;43.086;25.634;2024-02-14T10:49:25;99025.09;;;5.96;nan
58668;BME280;59852;43.086;25.634;2024-02-14T10:51:53;99020.63;;;5.81;nan
58668;BME280;59852;43.086;25.634;2024-02-14T10:54:19;99020.00;;;5.94;nan
58668;BME280;59852;43.086;25.634;2024-02-14T10:56:46;99026.50;;;5.84;nan
58668;BME280;59852;43.086;25.634;2024-02-14T10:59:15;99020.31;;;5.87;nan
58668;BME280;59852;43.086;25.634;2024-02-14T11:01:42;99021.75;;;5.75;nan
58668;BME280;59852;43.086;25.634;2024-02-14T11:04:08;99021.31;;;5.84;nan
58668;BME280;59852;43.086;25.634;2024-02-14T11:06:53;99024.44;;;5.73;nan
58668;BME280;59852;43.086;25.634;2024-02-14T11:09:20;99022.59;;;5.94;nan
58668;BME280;59852;43.086;25.634;2024-02-14T11:11:45;99027.59;;;5.61;nan
58668;BME280;59852;43.086;25.634;2024-02-14T11:14:15;99025.09;;;5.77;nan
58668;BME280;59852;43.086;25.634;2024-02-14T11:16:40;99024.00;;;5.64;nan
58668;BME280;59852;43.086;25.634;2024-02-14T11:19:12;99024.94;;;5.63;nan
58668;BME280;59852;43.086;25.634;2024-02-14T11:21:42;99028.72;;;5.56;nan
58668;BME280;59852;43.086;25.634;2024-02-14T11:24:11;99030.31;;;5.77;nan
58668;BME280;59852;43.086;25.634;2024-02-14T11:26:45;99031.38;;;5.73;nan
58668;BME280;59852;43.086;25.634;2024-02-14T11:29:13;99022.00;;;5.88;nan
58668;BME280;59852;43.086;25.634;2024-02-14T11:31:39;99018.03;;;5.81;nan
58668;BME280;59852;43.086;25.634;2024-02-14T11:34:05;99017.88;;;5.84;nan
58668;BME280;59852;43.086;25.634;2024-02-14T11:36:31;99028.00;;;5.71;nan
58668;BME280;59852;43.086;25.634;2024-02-14T11:38:57;99028.88;;;5.89;nan
58668;BME280;59852;43.086;25.634;2024-02-14T11:41:22;99029.13;;;5.65;nan
58668;BME280;59852;43.086;25.634;2024-02-14T11:43:51;99028.13;;;5.87;nan
58668;BME280;59852;43.086;25.634;2024-02-14T11:46:16;99033.22;;;6.07;nan
58668;BME280;59852;43.086;25.634;2024-02-14T11:48:43;99037.19;;;5.97;nan
58668;BME280;59852;43.086;25.634;2024-02-14T11:51:10;99037.09;;;5.80;nan
58668;BME280;59852;43.086;25.634;2024-02-14T11:53:36;99037.16;;;5.78;nan
58668;BME280;59852;43.086;25.634;2024-02-14T11:56:01;99032.56;;;5.66;nan
58668;BME280;59852;43.086;25.634;2024-02-14T11:58:27;99028.00;;;5.71;nan
58668;BME280;59852;43.086;25.634;2024-02-14T12:00:52;99038.41;;;5.71;nan
58668;BME280;59852;43.086;25.634;2024-02-14T12:03:19;99035.38;;;5.80;nan
58668;BME280;59852;43.086;25.634;2024-02-14T12:05:46;99034.72;;;5.94;nan
58668;BME280;59852;43.086;25.634;2024-02-14T12:08:12;99032.41;;;6.24;nan
58668;BME280;59852;43.086;25.634;2024-02-14T12:10:38;99031.97;;;5.97;nan
58668;BME280;59852;43.086;25.634;2024-02-14T12:13:07;99033.63;;;6.17;nan
58668;BME280;59852;43.086;25.634;2024-02-14T12:15:36;99034.81;;;5.92;nan
58668;BME280;59852;43.086;25.634;2024-02-14T12:18:02;99037.81;;;5.64;nan
58668;BME280;59852;43.086;25.634;2024-02-14T12:20:28;99037.94;;;5.99;nan
58668;BME280;59852;43.086;25.634;2024-02-14T12:22:53;99036.19;;;5.99;nan
58668;BME280;59852;43.086;25.634;2024-02-14T12:25:19;99036.66;;;5.90;nan
58668;BME280;59852;43.086;25.634;2024-02-14T12:27:49;99039.22;;;5.71;nan
58668;BME280;59852;43.086;25.634;2024-02-14T12:30:15;99032.06;;;5.95;nan
58668;BME280;59852;43.086;25.634;2024-02-14T12:32:40;99027.72;;;5.96;nan
58668;BME280;59852;43.086;25.634;2024-02-14T12:35:06;99033.22;;;5.88;nan
58668;BME280;59852;43.086;25.634;2024-02-14T12:37:32;99039.25;;;5.90;nan
58668;BME280;59852;43.086;25.634;2024-02-14T12:39:57;99037.22;;;6.14;nan
58668;BME280;59852;43.086;25.634;2024-02-14T12:42:22;99039.25;;;5.89;nan
58668;BME280;59852;43.086;25.634;2024-02-14T12:44:59;99033.09;;;6.10;nan
58668;BME280;59852;43.086;25.634;2024-02-14T12:47:25;99042.16;;;6.19;nan
58668;BME280;59852;43.086;25.634;2024-02-14T12:49:56;99039.56;;;6.01;nan
58668;BME280;59852;43.086;25.634;2024-02-14T12:52:24;99034.53;;;6.16;nan
58668;BME280;59852;43.086;25.634;2024-02-14T12:54:50;99036.09;;;6.20;nan
58668;BME280;59852;43.086;25.634;2024-02-14T12:57:15;99042.81;;;6.24;nan
58668;BME280;59852;43.086;25.634;2024-02-14T12:59:41;99043.53;;;6.09;nan
58668;BME280;59852;43.086;25.634;2024-02-14T13:02:06;99048.19;;;6.19;nan
58668;BME280;59852;43.086;25.634;2024-02-14T13:04:32;99049.16;;;5.99;nan
58668;BME280;59852;43.086;25.634;2024-02-14T13:06:57;99054.31;;;6.01;nan
58668;BME280;59852;43.086;25.634;2024-02-14T13:09:23;99050.22;;;5.76;nan
58668;BME280;59852;43.086;25.634;2024-02-14T13:11:48;99059.50;;;6.01;nan
58668;BME280;59852;43.086;25.634;2024-02-14T13:14:14;99057.41;;;5.90;nan
58668;BME280;59852;43.086;25.634;2024-02-14T13:16:40;99057.25;;;5.93;nan